الصفحة الرئيسية
METAR-TAF:

METAR-TAF

مطار :

مدينة غواتيمالا, غواتيمالا

دائرة عرض: 14-35N, خط طول: 090-31W, ارتفاع: 1489 متر

مراقبة الطقس الحالي

تاريخ ووقت الإصدار 14 دقيقة قبل الساعة 10:00UTC
رياح هادئة
درجة الحرارة 14°درجة مئوية
الرطوبة 100%
ضغط 1025 hPa
الرؤية: 0800 متر
غيوم متفرقة على ارتفاع 400 قدم
ضباب

METAR: MGGT 141000Z 00000KT 0800 FG SCT004 14/14 Q1025 A3027 APCH CLSD VOL. DE FUEGO EN ACTIVIDAD

زمن: 04:14 (10:14 UTC)

توقعات

التوقعات صالحة من14 الساعة 06 UTC إلى 15 الساعة 06 UTC
ريح 6 عقدة من الشمال
الرؤية 10 كم أو أكثر
الغيوم لا تقل 1500 م ولا وجود لمزنة ركامية السحاب الأسود
أصبح
من 14 الساعة 16 UTC إلى 14 الساعة 18 UTC
ريح 10 عقدة من الشمال
غيوم قليلة على ارتفاع 2000 قدم
مؤقت
من 14 الساعة 20 UTC إلى 14 الساعة 24 UTC
غيوم متفرقة على ارتفاع 2000 قدم
أصبح
من 15 الساعة 01 UTC إلى 15 الساعة 03 UTC
غيوم قليلة على ارتفاع 1600 قدم

TAF: MGGT 1406/1506 36006KT CAVOK TX26/1420Z TN12/1412Z BECMG 1416/1418 36010KT FEW020 TEMPO 1420/1424 SCT020 BECMG 1501/1503 FEW016

أرصاد الطقس والتوقعات من أكثر من 4000 مطار (تقارير الطقس للمطار METAR والتنبؤ بالطقس بالمطارTAF).

المحطات المتاحة هي النقط الصفراء والحمراء على الخريطة.

حرك المؤشر فوق النقطة لمعرفة اسم المحطة.

ثم انقر لمعرفة أرصاد وتوقعات الطقس.

لتغيير الخارطة: اضغط على الأزرار الخضراء مع رمز الصليب الأسود للتكبير. على الزر الأخضر مع شرطة للتصغير، أو على الأسهم الخضراء للخرائط المجاورة.


METAR-TAF: